sensor_id;sensor_type;location;lat;lon;timestamp;pressure;altitude;pressure_sealevel;temperature;humidity
75045;BME280;63614;56.026;35.960;2023-05-10T00:00:52;100247.22;;;7.95;46.59
75045;BME280;63614;56.026;35.960;2023-05-10T00:03:18;100244.97;;;8.00;47.94
75045;BME280;63614;56.026;35.960;2023-05-10T00:05:44;100250.06;;;8.10;47.89
75045;BME280;63614;56.026;35.960;2023-05-10T00:08:10;100244.44;;;8.15;46.41
75045;BME280;63614;56.026;35.960;2023-05-10T00:10:35;100245.63;;;8.21;46.27
75045;BME280;63614;56.026;35.960;2023-05-10T00:13:03;100246.13;;;8.24;47.13
75045;BME280;63614;56.026;35.960;2023-05-10T00:15:28;100239.00;;;8.26;46.34
75045;BME280;63614;56.026;35.960;2023-05-10T00:17:56;100246.28;;;8.23;47.09
75045;BME280;63614;56.026;35.960;2023-05-10T00:20:22;100239.16;;;8.25;46.90
75045;BME280;63614;56.026;35.960;2023-05-10T00:22:50;100237.56;;;8.24;47.19
75045;BME280;63614;56.026;35.960;2023-05-10T00:25:16;100251.91;;;8.18;47.41
75045;BME280;63614;56.026;35.960;2023-05-10T00:27:49;100251.63;;;8.21;46.60
75045;BME280;63614;56.026;35.960;2023-05-10T00:30:18;100258.44;;;8.22;48.89
75045;BME280;63614;56.026;35.960;2023-05-10T00:32:44;100256.44;;;7.80;53.31
75045;BME280;63614;56.026;35.960;2023-05-10T00:35:10;100254.78;;;7.71;54.15
75045;BME280;63614;56.026;35.960;2023-05-10T00:37:36;100248.81;;;7.78;54.27
75045;BME280;63614;56.026;35.960;2023-05-10T00:40:02;100257.94;;;7.82;51.07
75045;BME280;63614;56.026;35.960;2023-05-10T00:42:29;100250.03;;;7.84;51.68
75045;BME280;63614;56.026;35.960;2023-05-10T00:44:55;100250.38;;;7.89;50.29
75045;BME280;63614;56.026;35.960;2023-05-10T00:47:23;100251.03;;;7.91;49.21
75045;BME280;63614;56.026;35.960;2023-05-10T00:49:49;100256.97;;;8.02;50.39
75045;BME280;63614;56.026;35.960;2023-05-10T00:52:15;100249.13;;;8.11;50.14
75045;BME280;63614;56.026;35.960;2023-05-10T00:54:41;100259.94;;;8.07;51.80
75045;BME280;63614;56.026;35.960;2023-05-10T00:57:10;100257.66;;;7.86;52.77
75045;BME280;63614;56.026;35.960;2023-05-10T00:59:36;100254.53;;;7.82;53.46
75045;BME280;63614;56.026;35.960;2023-05-10T01:02:02;100259.59;;;7.84;53.74
75045;BME280;63614;56.026;35.960;2023-05-10T01:04:29;100258.75;;;7.83;53.42
75045;BME280;63614;56.026;35.960;2023-05-10T01:06:56;100250.53;;;7.70;53.02
75045;BME280;63614;56.026;35.960;2023-05-10T01:09:22;100249.19;;;7.66;53.60
75045;BME280;63614;56.026;35.960;2023-05-10T01:11:49;100248.16;;;7.58;53.92
75045;BME280;63614;56.026;35.960;2023-05-10T01:14:18;100245.22;;;7.53;54.86
75045;BME280;63614;56.026;35.960;2023-05-10T01:16:45;100246.16;;;7.52;54.72
75045;BME280;63614;56.026;35.960;2023-05-10T01:19:24;100251.34;;;7.70;54.52
75045;BME280;63614;56.026;35.960;2023-05-10T01:30:50;100247.00;;;7.71;54.61
75045;BME280;63614;56.026;35.960;2023-05-10T01:36:48;100256.06;;;7.57;54.28
75045;BME280;63614;56.026;35.960;2023-05-10T01:42:17;100248.97;;;7.41;50.91
75045;BME280;63614;56.026;35.960;2023-05-10T01:47:38;100248.69;;;7.62;48.54
75045;BME280;63614;56.026;35.960;2023-05-10T01:50:08;100244.44;;;7.61;48.85
75045;BME280;63614;56.026;35.960;2023-05-10T01:52:42;100245.06;;;7.55;51.13
75045;BME280;63614;56.026;35.960;2023-05-10T01:55:14;100231.66;;;7.59;49.49
75045;BME280;63614;56.026;35.960;2023-05-10T01:57:43;100232.19;;;7.63;47.14
75045;BME280;63614;56.026;35.960;2023-05-10T02:00:13;100234.72;;;7.73;48.84
75045;BME280;63614;56.026;35.960;2023-05-10T02:02:52;100235.22;;;7.76;47.47
75045;BME280;63614;56.026;35.960;2023-05-10T02:05:19;100241.81;;;7.89;49.67
75045;BME280;63614;56.026;35.960;2023-05-10T02:07:47;100236.41;;;7.82;49.87
75045;BME280;63614;56.026;35.960;2023-05-10T02:10:14;100241.75;;;7.80;51.17
75045;BME280;63614;56.026;35.960;2023-05-10T02:12:43;100239.31;;;7.79;51.90
75045;BME280;63614;56.026;35.960;2023-05-10T02:15:12;100232.78;;;7.75;51.45
75045;BME280;63614;56.026;35.960;2023-05-10T02:17:42;100238.25;;;7.72;52.69
75045;BME280;63614;56.026;35.960;2023-05-10T02:20:10;100236.94;;;7.68;52.68
75045;BME280;63614;56.026;35.960;2023-05-10T02:22:40;100234.31;;;7.50;53.22
75045;BME280;63614;56.026;35.960;2023-05-10T02:25:07;100229.44;;;7.46;54.02
75045;BME280;63614;56.026;35.960;2023-05-10T02:27:34;100228.13;;;7.60;53.25
75045;BME280;63614;56.026;35.960;2023-05-10T02:30:01;100235.94;;;7.69;53.55
75045;BME280;63614;56.026;35.960;2023-05-10T02:32:31;100234.72;;;7.73;53.46
75045;BME280;63614;56.026;35.960;2023-05-10T02:34:57;100233.44;;;7.77;53.47
75045;BME280;63614;56.026;35.960;2023-05-10T02:37:25;100230.09;;;7.85;53.00
75045;BME280;63614;56.026;35.960;2023-05-10T02:39:52;100233.00;;;7.81;54.06
75045;BME280;63614;56.026;35.960;2023-05-10T02:42:25;100234.47;;;7.84;54.77
75045;BME280;63614;56.026;35.960;2023-05-10T02:44:55;100234.94;;;7.79;54.26
75045;BME280;63614;56.026;35.960;2023-05-10T02:47:22;100234.84;;;7.71;55.48
75045;BME280;63614;56.026;35.960;2023-05-10T02:49:48;100234.25;;;7.59;56.39
75045;BME280;63614;56.026;35.960;2023-05-10T02:52:21;100231.66;;;7.59;57.27
75045;BME280;63614;56.026;35.960;2023-05-10T02:54:50;100223.69;;;7.71;56.39
75045;BME280;63614;56.026;35.960;2023-05-10T02:57:27;100233.81;;;7.64;56.47
75045;BME280;63614;56.026;35.960;2023-05-10T02:59:54;100235.00;;;7.70;56.01
75045;BME280;63614;56.026;35.960;2023-05-10T03:02:21;100233.75;;;7.74;55.44
75045;BME280;63614;56.026;35.960;2023-05-10T03:04:47;100226.94;;;7.73;52.90
75045;BME280;63614;56.026;35.960;2023-05-10T03:07:16;100223.97;;;7.86;51.65
75045;BME280;63614;56.026;35.960;2023-05-10T03:09:45;100223.53;;;7.90;48.87
75045;BME280;63614;56.026;35.960;2023-05-10T03:15:11;100227.53;;;7.85;48.58
75045;BME280;63614;56.026;35.960;2023-05-10T03:20:29;100212.38;;;8.16;52.23
75045;BME280;63614;56.026;35.960;2023-05-10T03:25:44;100209.22;;;8.48;47.03
75045;BME280;63614;56.026;35.960;2023-05-10T03:28:14;100209.16;;;8.66;46.79
75045;BME280;63614;56.026;35.960;2023-05-10T03:30:43;100208.09;;;8.85;45.75
75045;BME280;63614;56.026;35.960;2023-05-10T03:33:11;100204.25;;;8.98;46.95
75045;BME280;63614;56.026;35.960;2023-05-10T03:35:41;100208.22;;;9.18;45.85
75045;BME280;63614;56.026;35.960;2023-05-10T03:38:07;100210.66;;;9.20;46.00
75045;BME280;63614;56.026;35.960;2023-05-10T03:40:33;100207.75;;;9.23;46.26
75045;BME280;63614;56.026;35.960;2023-05-10T03:42:59;100204.53;;;9.37;47.78
75045;BME280;63614;56.026;35.960;2023-05-10T03:45:26;100203.41;;;9.40;49.28
75045;BME280;63614;56.026;35.960;2023-05-10T03:47:52;100206.19;;;9.47;49.43
75045;BME280;63614;56.026;35.960;2023-05-10T03:50:20;100203.59;;;9.47;49.91
75045;BME280;63614;56.026;35.960;2023-05-10T03:52:48;100204.22;;;9.49;50.06
75045;BME280;63614;56.026;35.960;2023-05-10T03:55:13;100205.56;;;9.69;49.79
75045;BME280;63614;56.026;35.960;2023-05-10T03:57:39;100203.59;;;9.79;49.29
75045;BME280;63614;56.026;35.960;2023-05-10T04:00:07;100207.03;;;9.88;49.28
75045;BME280;63614;56.026;35.960;2023-05-10T04:02:49;100205.25;;;10.05;49.33
75045;BME280;63614;56.026;35.960;2023-05-10T04:05:18;100212.19;;;10.29;48.71
75045;BME280;63614;56.026;35.960;2023-05-10T04:07:43;100208.59;;;10.55;48.46
75045;BME280;63614;56.026;35.960;2023-05-10T04:10:11;100202.88;;;10.60;45.76
75045;BME280;63614;56.026;35.960;2023-05-10T04:12:37;100198.50;;;10.60;44.94
75045;BME280;63614;56.026;35.960;2023-05-10T04:15:03;100198.50;;;10.60;44.05
75045;BME280;63614;56.026;35.960;2023-05-10T04:17:30;100200.47;;;10.50;43.73
75045;BME280;63614;56.026;35.960;2023-05-10T04:19:56;100208.06;;;10.68;44.60
75045;BME280;63614;56.026;35.960;2023-05-10T04:22:22;100208.47;;;10.88;44.16
75045;BME280;63614;56.026;35.960;2023-05-10T04:24:48;100211.31;;;11.09;43.90
75045;BME280;63614;56.026;35.960;2023-05-10T04:27:13;100202.25;;;11.29;43.38
75045;BME280;63614;56.026;35.960;2023-05-10T04:29:39;100199.25;;;11.40;41.44
75045;BME280;63614;56.026;35.960;2023-05-10T04:32:08;100204.50;;;11.55;40.86
75045;BME280;63614;56.026;35.960;2023-05-10T04:34:36;100205.84;;;11.74;39.73
75045;BME280;63614;56.026;35.960;2023-05-10T04:37:02;100198.13;;;11.80;40.07
75045;BME280;63614;56.026;35.960;2023-05-10T04:39:28;100203.47;;;12.10;39.14
75045;BME280;63614;56.026;35.960;2023-05-10T04:41:54;100200.97;;;12.32;39.16
75045;BME280;63614;56.026;35.960;2023-05-10T04:44:20;100198.59;;;12.97;38.01
75045;BME280;63614;56.026;35.960;2023-05-10T04:46:46;100195.78;;;13.71;36.35
75045;BME280;63614;56.026;35.960;2023-05-10T04:49:11;100196.47;;;14.08;36.17
75045;BME280;63614;56.026;35.960;2023-05-10T04:51:37;100189.19;;;14.67;34.07
75045;BME280;63614;56.026;35.960;2023-05-10T04:54:03;100196.78;;;15.03;33.41
75045;BME280;63614;56.026;35.960;2023-05-10T04:56:29;100193.03;;;15.26;31.61
75045;BME280;63614;56.026;35.960;2023-05-10T04:58:55;100188.44;;;15.75;31.78
75045;BME280;63614;56.026;35.960;2023-05-10T05:01:20;100189.38;;;16.54;30.20
75045;BME280;63614;56.026;35.960;2023-05-10T05:03:46;100185.31;;;16.58;29.98
75045;BME280;63614;56.026;35.960;2023-05-10T05:06:12;100181.31;;;18.15;27.56
75045;BME280;63614;56.026;35.960;2023-05-10T05:08:38;100177.69;;;19.32;25.71
75045;BME280;63614;56.026;35.960;2023-05-10T05:11:03;100176.88;;;19.98;25.49
75045;BME280;63614;56.026;35.960;2023-05-10T05:13:29;100174.16;;;20.45;23.18
75045;BME280;63614;56.026;35.960;2023-05-10T05:15:55;100170.25;;;21.17;22.58
75045;BME280;63614;56.026;35.960;2023-05-10T05:18:21;100178.66;;;21.76;22.01
75045;BME280;63614;56.026;35.960;2023-05-10T05:20:46;100168.53;;;22.74;22.21
75045;BME280;63614;56.026;35.960;2023-05-10T05:23:12;100162.16;;;23.02;20.41
75045;BME280;63614;56.026;35.960;2023-05-10T05:25:38;100161.91;;;23.03;19.85
75045;BME280;63614;56.026;35.960;2023-05-10T05:28:04;100163.50;;;23.64;20.44
75045;BME280;63614;56.026;35.960;2023-05-10T05:30:30;100158.66;;;23.93;19.82
75045;BME280;63614;56.026;35.960;2023-05-10T05:32:55;100159.25;;;24.64;18.73
75045;BME280;63614;56.026;35.960;2023-05-10T05:35:24;100159.00;;;22.78;20.00
75045;BME280;63614;56.026;35.960;2023-05-10T05:37:50;100154.50;;;21.56;22.02
75045;BME280;63614;56.026;35.960;2023-05-10T05:40:16;100155.03;;;21.92;21.42
75045;BME280;63614;56.026;35.960;2023-05-10T05:42:41;100154.72;;;22.27;20.51
75045;BME280;63614;56.026;35.960;2023-05-10T05:45:08;100151.53;;;22.75;20.81
75045;BME280;63614;56.026;35.960;2023-05-10T05:47:34;100159.72;;;22.46;20.13
75045;BME280;63614;56.026;35.960;2023-05-10T05:50:02;100149.56;;;22.21;20.94
75045;BME280;63614;56.026;35.960;2023-05-10T05:52:30;100146.94;;;21.99;20.92
75045;BME280;63614;56.026;35.960;2023-05-10T05:54:56;100140.63;;;22.05;20.54
75045;BME280;63614;56.026;35.960;2023-05-10T05:57:21;100146.38;;;22.85;20.05
75045;BME280;63614;56.026;35.960;2023-05-10T05:59:48;100139.69;;;22.82;20.79
75045;BME280;63614;56.026;35.960;2023-05-10T06:02:14;100134.41;;;23.10;19.59
75045;BME280;63614;56.026;35.960;2023-05-10T06:04:39;100128.38;;;21.99;21.50
75045;BME280;63614;56.026;35.960;2023-05-10T06:07:05;100125.16;;;21.97;21.07
75045;BME280;63614;56.026;35.960;2023-05-10T06:09:31;100123.81;;;20.92;20.52
75045;BME280;63614;56.026;35.960;2023-05-10T06:11:57;100125.03;;;20.32;21.10
75045;BME280;63614;56.026;35.960;2023-05-10T06:14:22;100126.09;;;19.48;21.72
75045;BME280;63614;56.026;35.960;2023-05-10T06:16:48;100125.00;;;19.14;21.92
75045;BME280;63614;56.026;35.960;2023-05-10T06:19:14;100120.78;;;19.24;21.82
75045;BME280;63614;56.026;35.960;2023-05-10T06:21:40;100129.38;;;19.32;22.87
75045;BME280;63614;56.026;35.960;2023-05-10T06:24:06;100121.16;;;19.64;23.70
75045;BME280;63614;56.026;35.960;2023-05-10T06:26:33;100114.16;;;20.17;21.58
75045;BME280;63614;56.026;35.960;2023-05-10T06:28:59;100116.44;;;20.25;22.33
75045;BME280;63614;56.026;35.960;2023-05-10T06:31:27;100109.34;;;19.42;22.78
75045;BME280;63614;56.026;35.960;2023-05-10T06:33:55;100117.16;;;19.73;22.44
75045;BME280;63614;56.026;35.960;2023-05-10T06:36:21;100110.94;;;19.67;22.78
75045;BME280;63614;56.026;35.960;2023-05-10T06:38:47;100108.31;;;19.55;22.20
75045;BME280;63614;56.026;35.960;2023-05-10T06:41:14;100109.34;;;19.42;22.83
75045;BME280;63614;56.026;35.960;2023-05-10T06:43:39;100114.06;;;19.64;23.27
75045;BME280;63614;56.026;35.960;2023-05-10T06:46:07;100109.47;;;19.59;22.63
75045;BME280;63614;56.026;35.960;2023-05-10T06:48:32;100103.50;;;19.40;22.99
75045;BME280;63614;56.026;35.960;2023-05-10T06:50:59;100110.38;;;19.30;22.88
75045;BME280;63614;56.026;35.960;2023-05-10T06:53:25;100101.50;;;18.82;24.20
75045;BME280;63614;56.026;35.960;2023-05-10T06:55:51;100108.59;;;18.14;24.73
75045;BME280;63614;56.026;35.960;2023-05-10T06:58:17;100104.53;;;18.37;24.08
75045;BME280;63614;56.026;35.960;2023-05-10T07:00:43;100105.38;;;18.79;24.09
75045;BME280;63614;56.026;35.960;2023-05-10T07:03:12;100105.97;;;18.51;23.14
75045;BME280;63614;56.026;35.960;2023-05-10T07:05:37;100099.47;;;18.35;23.89
75045;BME280;63614;56.026;35.960;2023-05-10T07:08:03;100104.00;;;18.28;24.71
75045;BME280;63614;56.026;35.960;2023-05-10T07:10:30;100106.72;;;18.21;25.20
75045;BME280;63614;56.026;35.960;2023-05-10T07:12:55;100111.53;;;18.06;25.33
75045;BME280;63614;56.026;35.960;2023-05-10T07:15:21;100105.41;;;18.30;25.98
75045;BME280;63614;56.026;35.960;2023-05-10T07:17:47;100109.28;;;18.09;24.32
75045;BME280;63614;56.026;35.960;2023-05-10T07:20:22;100107.47;;;17.85;24.71
75045;BME280;63614;56.026;35.960;2023-05-10T07:22:48;100104.72;;;17.98;24.68
75045;BME280;63614;56.026;35.960;2023-05-10T07:25:17;100102.28;;;18.03;25.41
75045;BME280;63614;56.026;35.960;2023-05-10T07:27:42;100106.59;;;18.16;25.00
75045;BME280;63614;56.026;35.960;2023-05-10T07:30:08;100102.69;;;18.00;24.25
75045;BME280;63614;56.026;35.960;2023-05-10T07:32:36;100108.91;;;18.24;24.17
75045;BME280;63614;56.026;35.960;2023-05-10T07:35:05;100104.38;;;18.13;24.54
75045;BME280;63614;56.026;35.960;2023-05-10T07:37:31;100097.94;;;18.27;24.18
75045;BME280;63614;56.026;35.960;2023-05-10T07:39:56;100103.25;;;18.58;23.78
75045;BME280;63614;56.026;35.960;2023-05-10T07:42:22;100095.25;;;18.64;24.11
75045;BME280;63614;56.026;35.960;2023-05-10T07:44:48;100092.06;;;18.44;23.52
75045;BME280;63614;56.026;35.960;2023-05-10T07:47:14;100093.28;;;18.60;23.60
75045;BME280;63614;56.026;35.960;2023-05-10T07:49:39;100094.16;;;18.05;23.53
75045;BME280;63614;56.026;35.960;2023-05-10T07:52:06;100093.31;;;17.86;23.81
75045;BME280;63614;56.026;35.960;2023-05-10T07:54:31;100089.09;;;18.03;23.72
75045;BME280;63614;56.026;35.960;2023-05-10T07:56:59;100090.56;;;17.99;23.09
75045;BME280;63614;56.026;35.960;2023-05-10T07:59:27;100089.00;;;18.28;24.17
75045;BME280;63614;56.026;35.960;2023-05-10T08:01:55;100086.97;;;18.30;23.83
75045;BME280;63614;56.026;35.960;2023-05-10T08:04:21;100080.03;;;17.99;23.58
75045;BME280;63614;56.026;35.960;2023-05-10T08:06:47;100083.06;;;17.77;23.82
75045;BME280;63614;56.026;35.960;2023-05-10T08:09:13;100082.66;;;17.99;24.28
75045;BME280;63614;56.026;35.960;2023-05-10T08:11:39;100081.47;;;18.32;23.25
75045;BME280;63614;56.026;35.960;2023-05-10T08:14:05;100081.84;;;18.36;23.20
75045;BME280;63614;56.026;35.960;2023-05-10T08:16:31;100076.78;;;18.34;21.82
75045;BME280;63614;56.026;35.960;2023-05-10T08:18:57;100072.53;;;18.51;22.64
75045;BME280;63614;56.026;35.960;2023-05-10T08:21:23;100081.41;;;18.20;22.54
75045;BME280;63614;56.026;35.960;2023-05-10T08:23:49;100076.97;;;18.21;21.38
75045;BME280;63614;56.026;35.960;2023-05-10T08:26:15;100056.81;;;18.26;22.38
75045;BME280;63614;56.026;35.960;2023-05-10T08:28:41;100067.78;;;18.72;22.99
75045;BME280;63614;56.026;35.960;2023-05-10T08:31:07;100058.38;;;18.76;22.30
75045;BME280;63614;56.026;35.960;2023-05-10T08:33:35;100056.34;;;18.78;22.51
75045;BME280;63614;56.026;35.960;2023-05-10T08:36:00;100059.38;;;18.63;21.79
75045;BME280;63614;56.026;35.960;2023-05-10T08:38:26;100065.41;;;18.52;21.97
75045;BME280;63614;56.026;35.960;2023-05-10T08:40:54;100059.13;;;18.53;21.38
75045;BME280;63614;56.026;35.960;2023-05-10T08:43:22;100057.81;;;18.74;21.42
75045;BME280;63614;56.026;35.960;2023-05-10T08:45:53;100051.41;;;18.70;20.73
75045;BME280;63614;56.026;35.960;2023-05-10T08:48:23;100053.41;;;18.86;21.12
75045;BME280;63614;56.026;35.960;2023-05-10T08:50:52;100048.91;;;19.29;22.14
75045;BME280;63614;56.026;35.960;2023-05-10T08:53:20;100048.22;;;19.34;21.24
75045;BME280;63614;56.026;35.960;2023-05-10T08:55:46;100036.50;;;19.30;21.10
75045;BME280;63614;56.026;35.960;2023-05-10T08:58:13;100036.59;;;19.11;21.70
75045;BME280;63614;56.026;35.960;2023-05-10T09:00:39;100032.03;;;19.18;20.81
75045;BME280;63614;56.026;35.960;2023-05-10T09:03:08;100030.06;;;19.49;20.21
75045;BME280;63614;56.026;35.960;2023-05-10T09:05:35;100036.50;;;19.41;20.20
75045;BME280;63614;56.026;35.960;2023-05-10T09:08:01;100021.00;;;19.57;20.15
75045;BME280;63614;56.026;35.960;2023-05-10T09:10:27;100026.28;;;19.10;20.26
75045;BME280;63614;56.026;35.960;2023-05-10T09:12:58;100027.22;;;19.27;20.54
75045;BME280;63614;56.026;35.960;2023-05-10T09:15:24;100018.63;;;19.44;20.35
75045;BME280;63614;56.026;35.960;2023-05-10T09:17:50;100018.16;;;19.58;19.84
75045;BME280;63614;56.026;35.960;2023-05-10T09:20:16;100005.50;;;19.60;20.08
75045;BME280;63614;56.026;35.960;2023-05-10T09:22:43;100007.16;;;19.38;20.64
75045;BME280;63614;56.026;35.960;2023-05-10T09:25:13;100002.81;;;19.44;20.80
75045;BME280;63614;56.026;35.960;2023-05-10T09:27:41;100001.75;;;19.45;20.37
75045;BME280;63614;56.026;35.960;2023-05-10T09:30:09;100000.84;;;19.27;20.98
75045;BME280;63614;56.026;35.960;2023-05-10T09:32:46;100006.63;;;18.82;21.41
75045;BME280;63614;56.026;35.960;2023-05-10T09:35:15;100008.63;;;18.26;22.02
75045;BME280;63614;56.026;35.960;2023-05-10T09:37:44;100006.69;;;18.33;22.30
75045;BME280;63614;56.026;35.960;2023-05-10T09:40:13;100011.91;;;18.40;22.58
75045;BME280;63614;56.026;35.960;2023-05-10T09:42:43;100006.75;;;18.14;21.98
75045;BME280;63614;56.026;35.960;2023-05-10T09:45:16;100008.75;;;18.01;22.38
75045;BME280;63614;56.026;35.960;2023-05-10T09:47:42;100008.94;;;18.18;22.24
75045;BME280;63614;56.026;35.960;2023-05-10T09:50:07;100000.09;;;18.12;22.50
75045;BME280;63614;56.026;35.960;2023-05-10T09:52:50;100004.28;;;18.31;21.56
75045;BME280;63614;56.026;35.960;2023-05-10T09:55:18;100002.25;;;18.64;21.20
75045;BME280;63614;56.026;35.960;2023-05-10T09:57:46;99997.09;;;18.69;21.48
75045;BME280;63614;56.026;35.960;2023-05-10T10:00:18;99995.69;;;18.66;21.89
75045;BME280;63614;56.026;35.960;2023-05-10T10:02:55;99996.22;;;18.45;21.84
75045;BME280;63614;56.026;35.960;2023-05-10T10:05:21;99990.66;;;18.65;21.41
75045;BME280;63614;56.026;35.960;2023-05-10T10:07:53;99995.13;;;18.76;22.35
75045;BME280;63614;56.026;35.960;2023-05-10T10:10:18;99992.16;;;18.73;21.65
75045;BME280;63614;56.026;35.960;2023-05-10T10:12:45;99987.75;;;18.85;21.38
75045;BME280;63614;56.026;35.960;2023-05-10T10:15:11;99993.41;;;19.00;21.11
75045;BME280;63614;56.026;35.960;2023-05-10T10:17:40;99985.25;;;19.02;21.84
75045;BME280;63614;56.026;35.960;2023-05-10T10:20:07;99985.25;;;19.02;21.48
75045;BME280;63614;56.026;35.960;2023-05-10T10:22:33;99976.50;;;19.37;21.38
75045;BME280;63614;56.026;35.960;2023-05-10T10:24:59;99973.56;;;19.21;21.61
75045;BME280;63614;56.026;35.960;2023-05-10T10:30:40;99972.41;;;19.29;22.58
75045;BME280;63614;56.026;35.960;2023-05-10T10:35:52;99969.22;;;19.03;22.13
75045;BME280;63614;56.026;35.960;2023-05-10T10:38:20;99978.72;;;18.93;22.67
75045;BME280;63614;56.026;35.960;2023-05-10T10:40:47;99976.19;;;18.86;23.06
75045;BME280;63614;56.026;35.960;2023-05-10T10:43:26;99974.28;;;18.75;23.64
75045;BME280;63614;56.026;35.960;2023-05-10T10:46:11;99971.44;;;18.76;23.66
75045;BME280;63614;56.026;35.960;2023-05-10T10:49:07;99967.00;;;18.88;23.93
75045;BME280;63614;56.026;35.960;2023-05-10T10:51:38;99965.50;;;18.39;23.49
75045;BME280;63614;56.026;35.960;2023-05-10T10:54:10;99964.97;;;18.18;23.83
75045;BME280;63614;56.026;35.960;2023-05-10T10:56:37;99971.13;;;18.12;24.06
75045;BME280;63614;56.026;35.960;2023-05-10T10:59:03;99960.59;;;18.12;24.25
75045;BME280;63614;56.026;35.960;2023-05-10T11:01:35;99966.94;;;17.92;25.14
75045;BME280;63614;56.026;35.960;2023-05-10T11:06:31;99960.28;;;17.71;25.38
75045;BME280;63614;56.026;35.960;2023-05-10T11:08:58;99961.66;;;17.74;25.26
75045;BME280;63614;56.026;35.960;2023-05-10T11:11:23;99958.38;;;17.78;24.88
75045;BME280;63614;56.026;35.960;2023-05-10T11:13:52;99960.72;;;17.50;25.29
75045;BME280;63614;56.026;35.960;2023-05-10T11:16:23;99954.91;;;17.22;24.93
75045;BME280;63614;56.026;35.960;2023-05-10T11:21:18;99961.16;;;17.28;25.74
75045;BME280;63614;56.026;35.960;2023-05-10T11:23:50;99955.50;;;17.24;25.46
75045;BME280;63614;56.026;35.960;2023-05-10T11:26:16;99952.22;;;17.11;24.68
75045;BME280;63614;56.026;35.960;2023-05-10T11:28:46;99954.56;;;17.19;24.91
75045;BME280;63614;56.026;35.960;2023-05-10T11:31:16;99944.41;;;17.22;24.99
75045;BME280;63614;56.026;35.960;2023-05-10T11:36:14;99949.59;;;17.11;25.29
75045;BME280;63614;56.026;35.960;2023-05-10T11:38:41;99947.53;;;17.13;24.76
75045;BME280;63614;56.026;35.960;2023-05-10T11:41:11;99947.41;;;17.45;24.92
75045;BME280;63614;56.026;35.960;2023-05-10T11:43:41;99938.44;;;17.52;23.87
75045;BME280;63614;56.026;35.960;2023-05-10T11:46:09;99937.97;;;17.37;24.25
75045;BME280;63614;56.026;35.960;2023-05-10T11:48:38;99931.69;;;17.56;24.45
75045;BME280;63614;56.026;35.960;2023-05-10T11:51:04;99933.63;;;17.49;24.16
75045;BME280;63614;56.026;35.960;2023-05-10T11:53:32;99929.88;;;17.57;24.13
75045;BME280;63614;56.026;35.960;2023-05-10T11:56:09;99936.00;;;17.69;23.32
75045;BME280;63614;56.026;35.960;2023-05-10T11:58:36;99922.47;;;17.84;23.67
75045;BME280;63614;56.026;35.960;2023-05-10T12:01:05;99927.38;;;17.99;24.33
75045;BME280;63614;56.026;35.960;2023-05-10T12:03:31;99921.88;;;18.01;23.29
75045;BME280;63614;56.026;35.960;2023-05-10T12:05:58;99928.84;;;17.76;22.92
75045;BME280;63614;56.026;35.960;2023-05-10T12:08:25;99921.63;;;17.90;23.42
75045;BME280;63614;56.026;35.960;2023-05-10T12:10:53;99925.75;;;17.98;23.04
75045;BME280;63614;56.026;35.960;2023-05-10T12:13:19;99922.09;;;17.99;23.46
75045;BME280;63614;56.026;35.960;2023-05-10T12:15:46;99922.16;;;18.11;24.28
75045;BME280;63614;56.026;35.960;2023-05-10T12:18:13;99911.97;;;18.14;23.77
75045;BME280;63614;56.026;35.960;2023-05-10T12:20:40;99921.00;;;18.07;23.94
75045;BME280;63614;56.026;35.960;2023-05-10T12:23:08;99911.75;;;18.16;24.57
75045;BME280;63614;56.026;35.960;2023-05-10T12:25:38;99916.84;;;17.99;23.86
75045;BME280;63614;56.026;35.960;2023-05-10T12:28:06;99917.72;;;17.93;23.93
75045;BME280;63614;56.026;35.960;2023-05-10T12:30:33;99909.91;;;18.17;23.71
75045;BME280;63614;56.026;35.960;2023-05-10T12:33:09;99898.66;;;18.40;24.09
75045;BME280;63614;56.026;35.960;2023-05-10T12:35:49;99900.50;;;18.51;23.41
75045;BME280;63614;56.026;35.960;2023-05-10T12:38:39;99909.25;;;18.33;23.77
75045;BME280;63614;56.026;35.960;2023-05-10T12:41:10;99900.69;;;18.26;23.45
75045;BME280;63614;56.026;35.960;2023-05-10T12:43:36;99896.09;;;18.21;23.47
75045;BME280;63614;56.026;35.960;2023-05-10T12:46:13;99893.13;;;18.29;23.28
75045;BME280;63614;56.026;35.960;2023-05-10T12:48:41;99898.72;;;18.33;23.52
75045;BME280;63614;56.026;35.960;2023-05-10T12:51:07;99893.91;;;18.30;24.47
75045;BME280;63614;56.026;35.960;2023-05-10T12:53:39;99897.16;;;18.44;23.70
75045;BME280;63614;56.026;35.960;2023-05-10T12:56:05;99898.31;;;18.48;24.01
75045;BME280;63614;56.026;35.960;2023-05-10T12:58:31;99892.91;;;18.31;24.37
75045;BME280;63614;56.026;35.960;2023-05-10T13:00:58;99902.47;;;18.13;24.42
75045;BME280;63614;56.026;35.960;2023-05-10T13:03:24;99897.69;;;18.22;24.83
75045;BME280;63614;56.026;35.960;2023-05-10T13:05:50;99889.13;;;18.39;24.63
75045;BME280;63614;56.026;35.960;2023-05-10T13:08:16;99891.91;;;18.56;24.73
75045;BME280;63614;56.026;35.960;2023-05-10T13:10:42;99883.91;;;18.74;24.32
75045;BME280;63614;56.026;35.960;2023-05-10T13:13:08;99878.03;;;18.60;23.64
75045;BME280;63614;56.026;35.960;2023-05-10T13:15:34;99881.94;;;18.58;24.27
75045;BME280;63614;56.026;35.960;2023-05-10T13:18:00;99876.13;;;18.67;24.31
75045;BME280;63614;56.026;35.960;2023-05-10T13:20:26;99877.03;;;18.61;24.51
75045;BME280;63614;56.026;35.960;2023-05-10T13:22:52;99874.84;;;18.58;24.97
75045;BME280;63614;56.026;35.960;2023-05-10T13:25:19;99872.69;;;18.67;24.51
75045;BME280;63614;56.026;35.960;2023-05-10T13:27:45;99878.97;;;18.54;24.83